Aérodrome :
LOGIN :

S'inscrire | Disclaimer

   EN    FR    IT 

 










Légende :    VFR   VFR Marginal   IFR   IFR Intensif   IFR Très Intensif
Visi : 
Plafond : 
>= 8 km
>= 3000ft
5 à 8 km
1000 à 3000 ft
1500m à 5 km
500 à 1000 ft
800 à 1500m
200 à 500 ft
< 800m
< 200 ft
Symboles :   Orages  Brouillard  Fortes neiges  Fortes précipitations  Vent > 20 kt
SIGMETs :   Divers  Orages  Givrage  Turbulence  Onde Orograph.  Cendres Volcan.






- Altitude de l'aérodrome : 124 ft
- Code IATA : RNS


LFRN - Rennes

DERNIER METAR :
  • 271430Z AUTO 32018KT 9999 BKN036 OVC044 10/04 Q1010 NOSIG

METARs EXPIRÉS :
  • 271400Z AUTO 31017KT 9999 SCT029 BKN038 OVC045 09/04 Q1009 TEMPO 32015G25KT
  • 271330Z AUTO 31018KT 9999 BKN027 BKN033 OVC040 09/04 Q1008 TEMPO 32015G25KT
  • 271300Z AUTO 31019G31KT 9999 FEW014 BKN024 OVC032 08/04 Q1007 NOSIG
  • 271230Z AUTO 31019KT 9999 BKN020 OVC029 09/05 Q1006 BECMG 32015G25KT
  • 271200Z AUTO 31023KT 9999 BKN019 OVC025 08/05 Q1006 TEMPO BKN014 BECMG 32015G25KT

TAF TAF LFRN
Valide du 27 à 12h jusqu'au 28 à 12h UTC


271100Z 2712/2812 32023G35KT 9999 BKN020
TEMPO 2712/2713 5000 -SHRA BKN014
BECMG 2713/2715 32015G25KT
BECMG 2715/2717 32010KT
BECMG 2718/2720 VRB04KT
BECMG 2802/2804 17010KT
TEMPO 2804/2808 4000 RA
BECMG 2806/2808 OVC008
TEMPO 2808/2812 4000 DZ BKN004
ATIS : +33 2 99 67 72 50



MET'MAP, la Météo Aéronautique d'un coup d'oeil ! - Copyright ORBIFLY Décembre 2007 - Disclaimer

ORBIFLY MET'MAP TEAM :

Programmation & Développement : Alexandra Zaïnal
Sur une idée originale de : Baudouin d'Aumeries
Assistance à la programmation : Marc-Olivier Méhu
Soutien technique & logistique : Manuel Goepfert

Contact : metmap@orbifly.com




SOURCES & CREDITS :

   NOAA